Portada
METAR-TAF:

METAR-TAF

Aeroports :

Tena, Equador

latitud: 01-03-35S, longitud: 77-35-00W, altitud: 376 m

Observació

L'informe es va fer fa 26 minuts, a les 13:00 UTC
Vent 4 kt del Oest
Temperatura 22°C
Humitat 94%
Pressió 1015 hPa
Visibilitat: 6000 m
Escasses núvols a una alçada de 300 ft
Núvols disperses a una alçada de 1000 ft
Cel cobert a una alçada de 10000 ft
boira en bancs

METAR: SEJD 301300Z 26004KT 6000 BCFG FEW003 SCT010 OVC100 22/21 Q1015 RMK A2999

Hora: 08:26 (13:26 UTC)


TAF: manca

Observacions i pronòstics meteorològics de més de 4000 aeroports (METAR i TAF).

Les estacions disponibles són els punts grocs i vermells al mapa.

Posi el ratolí al punt desitjat per veure el nom de l'estació.

Feu clic per veure les observacions i els pronòstics meteorològics.

Per canviar el mapa: feu clic els botons verds amb una creu de color negre per apropar; al botó verd amb un guió per allunyar la imatge; o en les fletxes verdes per a mapes adjacents.


METAR-TAF: